Mccreary, Canada
Current Conditions -  °F | °C
As of 7:00 PM on Saturday 25 Oct 2014 (Local Time) from CYDN Reporting Station
Clear Clear  
Wind Chill: 39°   Ceiling: Unl
Heat Index: 45°   Visibility: 9mi
Dew Point: 28°   Wind: 10mph
Humidity: 53%   Direction: 290°WNW
Pressure: 29.95"   Gusts: NA
Location:  50.78°N, 99.48°W
Report Text: CYDN 260000Z AUTO 29009KT 9SM CLR 07/M02 A2995 RMK SLP155
Loading
Personal Weather Stations






























Interactive Weather Map
Tropical Storm Tracking
New forecast layout! Learn more

10-Day Weather Forecast

Advertisements
Track Severe Weather on mobile